Time;durP1;ratioP1;P1;durP2;ratioP2;P2;SDS_P1;SDS_P2;PMS_P1;PMS_P2;Temp;Humidity;BMP_temperature;BMP_pressure;BME280_temperature;BME280_humidity;BME280_pressure;Samples;Min_cycle;Max_cycle;Signal;HPM_P1;HPM_P2
2022/01/04 00:01:04;;;;;;;23.80;6.25;;;8.40;99.90;;;;;;5042643;28;20060;-80
2022/01/04 00:03:29;;;;;;;27.38;7.25;;;8.50;99.90;;;;;;5041870;28;20059;-80
2022/01/04 00:05:55;;;;;;;21.05;6.28;;;8.40;99.90;;;;;;5025946;28;20041;-80
2022/01/04 00:08:22;;;;;;;20.27;6.32;;;8.50;99.90;;;;;;5022234;28;20145;-80
2022/01/04 00:10:49;;;;;;;20.85;7.65;;;8.40;99.90;;;;;;5025258;28;20368;-80
2022/01/04 00:13:24;;;;;;;23.45;6.57;;;8.50;99.90;;;;;;5040569;28;20029;-80
2022/01/04 00:15:51;;;;;;;;;;;8.50;99.90;;;;;;5029187;28;20157;-80
2022/01/04 00:18:17;;;;;;;27.40;7.05;;;8.50;99.90;;;;;;5042408;28;19959;-80
2022/01/04 00:20:44;;;;;;;21.63;6.68;;;8.50;99.90;;;;;;5020816;28;20040;-80
2022/01/04 00:23:09;;;;;;;18.98;5.97;;;8.50;99.90;;;;;;5024373;28;20111;-80
2022/01/04 00:25:35;;;;;;;24.23;7.20;;;8.50;99.90;;;;;;5044349;28;20519;-80
2022/01/04 00:28:01;;;;;;;24.63;6.60;;;8.40;99.90;;;;;;5040354;28;20499;-80
2022/01/04 00:30:29;;;;;;;19.70;5.85;;;8.50;99.90;;;;;;5037765;28;20697;-80
2022/01/04 00:32:55;;;;;;;17.92;6.03;;;8.50;99.90;;;;;;5036212;28;20046;-80
2022/01/04 00:35:21;;;;;;;21.38;6.70;;;8.40;99.90;;;;;;5041550;28;20052;-80
2022/01/04 00:37:47;;;;;;;23.88;6.43;;;8.50;99.90;;;;;;5018827;28;20045;-80
2022/01/04 00:40:13;;;;;;;23.50;6.32;;;8.40;99.90;;;;;;5041496;28;20045;-80
2022/01/04 00:42:39;;;;;;;27.08;6.38;;;8.50;99.90;;;;;;5023890;28;20181;-80
2022/01/04 00:45:05;;;;;;;22.92;6.93;;;8.50;99.90;;;;;;5039399;28;20049;-80
2022/01/04 00:47:45;;;;;;;24.75;6.78;;;8.50;99.90;;;;;;5024846;28;20082;-80
2022/01/04 00:50:11;;;;;;;17.65;6.63;;;8.50;99.90;;;;;;5023595;28;20044;-80
2022/01/04 00:52:37;;;;;;;18.73;6.13;;;8.50;99.90;;;;;;5019756;28;20041;-80
2022/01/04 00:55:04;;;;;;;18.80;6.28;;;8.60;99.90;;;;;;5056415;28;20029;-80
2022/01/04 00:57:29;;;;;;;18.15;6.88;;;8.60;99.90;;;;;;5042456;28;20063;-80
2022/01/04 00:59:55;;;;;;;19.27;6.38;;;8.60;99.90;;;;;;5041264;28;20476;-80
2022/01/04 01:02:21;;;;;;;22.98;7.15;;;8.60;99.90;;;;;;5040112;28;20112;-80
2022/01/04 01:04:46;;;;;;;25.65;7.22;;;8.60;99.90;;;;;;5025011;28;20041;-80
2022/01/04 01:07:12;;;;;;;19.45;6.93;;;8.60;99.90;;;;;;5056962;28;20083;-80
2022/01/04 01:09:48;;;;;;;25.75;6.78;;;8.60;99.90;;;;;;5040170;28;20119;-80
2022/01/04 01:12:13;;;;;;;24.15;7.28;;;8.50;99.90;;;;;;5037746;28;20099;-80
2022/01/04 01:14:39;;;;;;;26.10;8.13;;;8.40;99.90;;;;;;5056322;28;20033;-80
2022/01/04 01:17:05;;;;;;;24.42;8.55;;;8.50;99.90;;;;;;5031739;28;20771;-80
2022/01/04 01:19:30;;;;;;;21.67;7.53;;;8.40;99.90;;;;;;5023760;28;20181;-80
2022/01/04 01:21:59;;;;;;;24.52;8.00;;;8.50;99.90;;;;;;5040192;28;20515;-80
2022/01/04 01:24:25;;;;;;;22.58;7.70;;;8.50;99.90;;;;;;5021490;28;20044;-80
2022/01/04 01:26:50;;;;;;;27.42;7.57;;;8.50;99.90;;;;;;5023665;28;20448;-80
2022/01/04 01:29:16;;;;;;;25.30;7.05;;;8.60;99.90;;;;;;5018116;28;20095;-80
2022/01/04 01:31:41;;;;;;;26.65;7.25;;;8.50;99.90;;;;;;5020539;28;20106;-80
2022/01/04 01:34:07;;;;;;;27.20;7.28;;;8.60;99.90;;;;;;5039718;28;20039;-80
2022/01/04 01:36:33;;;;;;;30.30;6.82;;;8.60;99.90;;;;;;5023507;28;20071;-80
2022/01/04 01:38:58;;;;;;;20.48;6.90;;;8.60;99.90;;;;;;5020920;28;20634;-80
2022/01/04 01:41:27;;;;;;;24.67;7.05;;;8.60;99.90;;;;;;5033925;28;20037;-80
2022/01/04 01:43:53;;;;;;;24.48;7.60;;;8.70;99.90;;;;;;5038796;28;20048;-80
2022/01/04 01:46:19;;;;;;;30.77;8.45;;;8.70;99.90;;;;;;5055755;28;20460;-80
2022/01/04 01:48:44;;;;;;;28.45;7.53;;;8.70;99.90;;;;;;5020864;28;20083;-80
2022/01/04 01:51:10;;;;;;;25.45;7.70;;;8.70;99.90;;;;;;5022023;28;20095;-80
2022/01/04 01:53:36;;;;;;;23.48;6.88;;;8.70;99.90;;;;;;5037875;28;20036;-80
2022/01/04 01:56:02;;;;;;;22.85;7.07;;;8.70;99.90;;;;;;5038418;28;20040;-80
2022/01/04 01:58:27;;;;;;;26.30;6.47;;;8.60;99.90;;;;;;5051931;28;20139;-80
2022/01/04 02:00:53;;;;;;;21.13;7.38;;;8.70;99.90;;;;;;5017196;28;20029;-80
2022/01/04 02:03:19;;;;;;;26.00;6.93;;;8.60;99.90;;;;;;5036740;28;20033;-80
2022/01/04 02:05:45;;;;;;;19.55;6.80;;;8.60;99.90;;;;;;5034657;28;20114;-80
2022/01/04 02:08:13;;;;;;;27.80;7.18;;;8.60;99.90;;;;;;5055671;28;20052;-80
2022/01/04 02:10:40;;;;;;;28.77;6.68;;;8.60;99.90;;;;;;5039216;28;20094;-80
2022/01/04 02:13:05;;;;;;;15.15;6.40;;;8.60;99.90;;;;;;5039113;28;20040;-80
2022/01/04 02:15:33;;;;;;;33.42;6.95;;;8.50;99.90;;;;;;5022537;28;20032;-80
2022/01/04 02:17:59;;;;;;;28.77;8.00;;;8.60;99.90;;;;;;5020635;28;20029;-80
2022/01/04 02:20:24;;;;;;;24.42;6.75;;;8.60;99.90;;;;;;5035027;28;20353;-80
2022/01/04 02:22:50;;;;;;;25.08;6.43;;;8.60;99.90;;;;;;5021596;28;20045;-80
2022/01/04 02:25:16;;;;;;;25.58;6.50;;;8.70;99.90;;;;;;5036898;28;20036;-80
2022/01/04 02:27:42;;;;;;;21.50;6.70;;;8.70;99.90;;;;;;5042717;28;20094;-80
2022/01/04 02:30:14;;;;;;;22.05;6.25;;;8.70;99.90;;;;;;5041322;28;20358;-80
2022/01/04 02:32:41;;;;;;;22.00;6.60;;;8.60;99.90;;;;;;5035947;28;20196;-80
2022/01/04 02:35:08;;;;;;;32.78;7.53;;;8.60;99.90;;;;;;5039571;28;20056;-80
2022/01/04 02:37:33;;;;;;;28.27;7.03;;;8.60;99.90;;;;;;5024651;28;20051;-80
2022/01/04 02:39:59;;;;;;;22.08;6.18;;;8.60;99.90;;;;;;5022283;28;20037;-80
2022/01/04 02:42:25;;;;;;;19.10;5.88;;;8.70;99.90;;;;;;5037007;28;20131;-80
2022/01/04 02:44:51;;;;;;;27.65;6.75;;;8.60;99.90;;;;;;5039844;28;20044;-80
2022/01/04 02:47:18;;;;;;;25.48;7.22;;;8.60;99.90;;;;;;5036284;28;20048;-80
2022/01/04 02:49:45;;;;;;;25.77;6.70;;;8.60;99.90;;;;;;5022979;28;20048;-80
2022/01/04 02:52:10;;;;;;;24.20;7.03;;;8.60;99.90;;;;;;5036732;28;20099;-80
2022/01/04 02:54:36;;;;;;;22.35;7.80;;;8.60;99.90;;;;;;5019379;28;20048;-80
2022/01/04 02:57:02;;;;;;;24.60;7.20;;;8.60;99.90;;;;;;5023160;28;20041;-80
2022/01/04 02:59:28;;;;;;;26.98;7.13;;;8.60;99.90;;;;;;5021238;28;20049;-80
2022/01/04 03:01:53;;;;;;;24.15;7.40;;;8.60;99.90;;;;;;5037937;28;20044;-80
2022/01/04 03:04:20;;;;;;;24.42;7.30;;;8.60;99.90;;;;;;5038374;28;20029;-80
2022/01/04 03:06:46;;;;;;;24.08;6.70;;;8.60;99.90;;;;;;5041174;28;20100;-80
2022/01/04 03:09:12;;;;;;;25.67;7.35;;;8.70;99.90;;;;;;5038573;28;20068;-80
2022/01/04 03:11:38;;;;;;;20.83;7.40;;;8.60;99.90;;;;;;5038739;28;20124;-80
2022/01/04 03:14:04;;;;;;;27.63;7.80;;;8.60;99.90;;;;;;5020986;28;20029;-80
2022/01/04 03:16:29;;;;;;;24.23;8.10;;;8.60;99.90;;;;;;5040496;28;20033;-80
2022/01/04 03:19:05;;;;;;;24.67;8.13;;;8.60;99.90;;;;;;5038154;28;20040;-80
2022/01/04 03:21:38;;;;;;;24.25;8.15;;;8.60;99.90;;;;;;5036561;28;20088;-80
2022/01/04 03:24:05;;;;;;;29.65;8.48;;;8.50;99.90;;;;;;5037160;28;20091;-80
2022/01/04 03:26:32;;;;;;;26.90;8.50;;;8.50;99.90;;;;;;5022124;28;20552;-79
2022/01/04 03:28:58;;;;;;;28.67;9.15;;;8.50;99.90;;;;;;5038079;28;20044;-80
2022/01/04 03:31:24;;;;;;;23.90;7.90;;;8.50;99.90;;;;;;5037997;28;20499;-80
2022/01/04 03:33:50;;;;;;;26.83;8.90;;;8.50;99.90;;;;;;5022790;28;20366;-80
2022/01/04 03:36:18;;;;;;;24.77;9.00;;;8.50;99.90;;;;;;5019465;28;20061;-80
2022/01/04 03:38:48;;;;;;;32.58;8.32;;;8.50;99.90;;;;;;5037401;28;20060;-80
2022/01/04 03:41:18;;;;;;;31.05;8.43;;;8.50;99.90;;;;;;5021950;28;20049;-80
2022/01/04 03:43:43;;;;;;;28.90;8.82;;;8.50;99.90;;;;;;5012739;28;20053;-80
2022/01/04 03:46:10;;;;;;;23.05;9.13;;;8.60;99.90;;;;;;5038752;28;20129;-80
2022/01/04 03:48:35;;;;;;;28.48;9.43;;;8.60;99.90;;;;;;5035645;28;20045;-80
2022/01/04 03:51:02;;;;;;;27.90;8.80;;;8.60;99.90;;;;;;5037708;28;20068;-80
2022/01/04 03:53:28;;;;;;;27.17;8.85;;;8.60;99.90;;;;;;5021815;28;20033;-80
2022/01/04 03:55:54;;;;;;;17.10;8.60;;;8.60;99.90;;;;;;5022362;28;20507;-80
2022/01/04 03:58:20;;;;;;;30.80;9.95;;;8.60;99.90;;;;;;5021624;28;20029;-80
2022/01/04 04:00:45;;;;;;;28.50;9.20;;;8.60;99.90;;;;;;5021128;28;20037;-80
2022/01/04 04:03:11;;;;;;;31.65;10.07;;;8.60;99.90;;;;;;5036545;28;20036;-80
2022/01/04 04:05:37;;;;;;;26.48;9.18;;;8.60;99.90;;;;;;5011962;28;20472;-81
2022/01/04 04:08:02;;;;;;;29.73;9.80;;;8.60;99.90;;;;;;5018277;28;20123;-80
2022/01/04 04:10:31;;;;;;;26.50;10.30;;;8.70;99.90;;;;;;5038417;28;20056;-80
2022/01/04 04:12:56;;;;;;;29.73;10.77;;;8.70;99.90;;;;;;5053657;28;20892;-80
2022/01/04 04:15:22;;;;;;;31.95;12.05;;;8.70;99.90;;;;;;5025908;28;20464;-81
2022/01/04 04:17:48;;;;;;;27.23;10.93;;;8.70;99.90;;;;;;5040033;28;20039;-80
2022/01/04 04:20:15;;;;;;;30.67;10.40;;;8.70;99.90;;;;;;5020864;28;20112;-80
2022/01/04 04:22:41;;;;;;;32.97;10.90;;;8.70;99.90;;;;;;5021488;28;20037;-80
2022/01/04 04:25:10;;;;;;;30.50;10.38;;;8.70;99.90;;;;;;5026318;28;20041;-80
2022/01/04 04:27:35;;;;;;;30.30;11.07;;;8.70;99.90;;;;;;5025578;28;20044;-80
2022/01/04 04:30:02;;;;;;;25.92;10.85;;;8.70;99.90;;;;;;5058508;28;20044;-80
2022/01/04 04:32:28;;;;;;;33.28;11.32;;;8.70;99.90;;;;;;5025468;28;20110;-80
2022/01/04 04:34:54;;;;;;;33.53;11.32;;;8.70;99.90;;;;;;5023463;28;20029;-80
2022/01/04 04:37:19;;;;;;;28.50;10.63;;;8.70;99.90;;;;;;5020157;28;20037;-80
2022/01/04 04:39:45;;;;;;;28.25;11.10;;;8.70;99.90;;;;;;5037631;28;20036;-80
2022/01/04 04:42:11;;;;;;;28.50;11.95;;;8.70;99.90;;;;;;5035777;28;20288;-80
2022/01/04 04:44:39;;;;;;;29.30;12.10;;;8.70;99.90;;;;;;5025014;28;20044;-80
2022/01/04 04:47:05;;;;;;;30.83;11.77;;;8.70;99.90;;;;;;5042113;28;20521;-80
2022/01/04 04:49:31;;;;;;;35.97;12.52;;;8.70;99.90;;;;;;5039382;28;20195;-80
2022/01/04 04:51:59;;;;;;;33.85;13.05;;;8.70;99.90;;;;;;5037153;28;20029;-80
2022/01/04 04:54:26;;;;;;;27.27;11.90;;;8.70;99.90;;;;;;5038042;28;20514;-80
2022/01/04 04:56:51;;;;;;;33.83;12.73;;;8.70;99.90;;;;;;5043369;28;20686;-80
2022/01/04 04:59:17;;;;;;;28.63;13.00;;;8.70;99.90;;;;;;5039468;28;20159;-80
2022/01/04 05:01:43;;;;;;;39.53;13.38;;;8.70;99.90;;;;;;5040393;28;20039;-80
2022/01/04 05:04:08;;;;;;;35.63;12.65;;;8.70;99.90;;;;;;5040403;28;20395;-80
2022/01/04 05:06:34;;;;;;;32.55;12.85;;;8.70;99.90;;;;;;5025296;28;20037;-80
2022/01/04 05:09:00;;;;;;;35.30;13.52;;;8.70;99.90;;;;;;5023138;28;20415;-80
2022/01/04 05:11:26;;;;;;;31.50;12.95;;;8.70;99.90;;;;;;5040124;28;20033;-80
2022/01/04 05:13:52;;;;;;;37.28;13.27;;;8.70;99.90;;;;;;5038823;28;20040;-80
2022/01/04 05:16:18;;;;;;;35.42;14.07;;;8.70;99.90;;;;;;5043491;28;20403;-80
2022/01/04 05:18:43;;;;;;;35.78;13.15;;;8.70;99.90;;;;;;5054914;28;20040;-80
2022/01/04 05:21:09;;;;;;;34.45;12.98;;;8.70;99.90;;;;;;5039568;28;20029;-80
2022/01/04 05:23:35;;;;;;;33.28;13.40;;;8.70;99.90;;;;;;5022677;28;20036;-80
2022/01/04 05:26:00;;;;;;;45.58;14.02;;;8.70;99.90;;;;;;5024015;28;20299;-80
2022/01/04 05:28:28;;;;;;;33.28;13.68;;;8.70;99.90;;;;;;5041979;28;20366;-80
2022/01/04 05:30:53;;;;;;;38.22;13.98;;;8.60;99.90;;;;;;5022612;28;20056;-80
2022/01/04 05:33:19;;;;;;;28.00;12.95;;;8.60;99.90;;;;;;5023592;28;20037;-80
2022/01/04 05:35:44;;;;;;;30.73;12.27;;;8.60;99.90;;;;;;5038982;28;20049;-81
2022/01/04 05:38:10;;;;;;;29.70;13.35;;;8.60;99.90;;;;;;5024517;28;20033;-80
2022/01/04 05:40:39;;;;;;;29.83;13.40;;;8.60;99.90;;;;;;5006175;28;20256;-81
2022/01/04 05:43:05;;;;;;;34.60;13.20;;;8.60;99.90;;;;;;5054934;28;20040;-80
2022/01/04 05:45:31;;;;;;;33.25;13.00;;;8.60;99.90;;;;;;5020603;28;20516;-81
2022/01/04 05:47:57;;;;;;;38.78;14.18;;;8.60;99.90;;;;;;5024056;28;20427;-80
2022/01/04 05:50:23;;;;;;;37.72;13.15;;;8.60;99.90;;;;;;5023443;28;20102;-80
2022/01/04 05:52:48;;;;;;;37.15;12.82;;;8.60;99.90;;;;;;5039218;28;20040;-80
2022/01/04 05:55:14;;;;;;;26.67;12.02;;;8.60;99.90;;;;;;5037602;28;20037;-80
2022/01/04 05:57:40;;;;;;;33.58;12.13;;;8.50;99.90;;;;;;5036443;28;20083;-80
2022/01/04 06:00:07;;;;;;;24.50;11.07;;;8.50;99.90;;;;;;5023981;28;20402;-80
2022/01/04 06:02:32;;;;;;;31.60;12.20;;;8.50;99.90;;;;;;5025037;28;20548;-80
2022/01/04 06:04:58;;;;;;;33.22;11.82;;;8.40;99.90;;;;;;5015457;28;20770;-81
2022/01/04 06:07:23;;;;;;;32.67;12.38;;;8.50;99.90;;;;;;5039984;28;20493;-80
2022/01/04 06:09:52;;;;;;;30.42;12.55;;;8.50;99.90;;;;;;5015811;28;20036;-81
2022/01/04 06:15:07;;;;;;;31.40;11.63;;;8.60;99.90;;;;;;5042029;28;20040;-80
2022/01/04 06:17:38;;;;;;;35.03;11.68;;;8.50;99.90;;;;;;5015406;28;20480;-80
2022/01/04 06:20:10;;;;;;;28.42;11.68;;;8.60;99.90;;;;;;5034231;28;20033;-80
2022/01/04 06:22:39;;;;;;;29.67;12.25;;;8.50;99.90;;;;;;5039131;28;20037;-80
2022/01/04 06:25:07;;;;;;;33.50;11.73;;;8.50;99.90;;;;;;5021674;28;20081;-80
2022/01/04 06:27:34;;;;;;;30.42;12.52;;;8.50;99.90;;;;;;5021484;28;20037;-80
2022/01/04 06:30:00;;;;;;;27.92;11.40;;;8.60;99.90;;;;;;5022203;28;20119;-80
2022/01/04 06:32:26;;;;;;;29.73;11.90;;;8.60;99.90;;;;;;5021269;28;20037;-80
2022/01/04 06:34:52;;;;;;;30.85;12.18;;;8.60;99.90;;;;;;5022161;28;20082;-80
2022/01/04 06:37:18;;;;;;;30.00;12.35;;;8.60;99.90;;;;;;5054054;28;20077;-80
2022/01/04 06:39:44;;;;;;;34.03;12.30;;;8.60;99.90;;;;;;5034720;28;20545;-80
2022/01/04 06:42:11;;;;;;;31.88;12.20;;;8.60;99.90;;;;;;5038708;28;20049;-80
2022/01/04 06:44:38;;;;;;;35.08;12.95;;;8.60;99.90;;;;;;5037396;28;20036;-80
2022/01/04 06:47:04;;;;;;;27.92;12.18;;;8.60;99.90;;;;;;5036367;28;20480;-80
2022/01/04 06:49:30;;;;;;;35.35;12.63;;;8.60;99.90;;;;;;5019748;28;20048;-80
2022/01/04 06:51:56;;;;;;;40.05;12.18;;;8.70;99.90;;;;;;5036953;28;20049;-80
2022/01/04 06:54:22;;;;;;;31.52;12.52;;;8.60;99.90;;;;;;5034340;28;20380;-80
2022/01/04 06:56:48;;;;;;;31.65;11.90;;;8.60;99.90;;;;;;5019154;28;20036;-80
2022/01/04 06:59:15;;;;;;;40.85;12.65;;;8.60;99.90;;;;;;5019990;28;20037;-81
2022/01/04 07:01:41;;;;;;;30.80;11.60;;;8.60;99.90;;;;;;5018959;28;20035;-80
2022/01/04 07:04:08;;;;;;;14.48;6.32;;;8.60;99.90;;;;;;5047166;28;20511;-81
2022/01/04 07:06:34;;;;;;;26.25;9.65;;;8.40;99.90;;;;;;5050930;28;20048;-80
2022/01/04 07:09:00;;;;;;;23.75;8.88;;;8.50;99.90;;;;;;5018149;28;20052;-81
2022/01/04 07:11:26;;;;;;;23.27;9.30;;;8.50;99.90;;;;;;5022269;28;20116;-80
2022/01/04 07:13:52;;;;;;;24.80;7.93;;;8.40;99.90;;;;;;5038788;28;20127;-81
2022/01/04 07:16:18;;;;;;;22.88;8.20;;;8.50;99.90;;;;;;5023014;28;20036;-81
2022/01/04 07:18:46;;;;;;;23.50;8.88;;;8.40;99.90;;;;;;5020346;28;20021;-81
2022/01/04 07:21:13;;;;;;;22.10;9.38;;;8.40;99.90;;;;;;5036479;28;20029;-80
2022/01/04 07:23:39;;;;;;;24.75;8.80;;;8.40;99.90;;;;;;5037125;28;20037;-80
2022/01/04 07:26:05;;;;;;;29.30;9.30;;;8.40;99.90;;;;;;5039608;28;20047;-81
2022/01/04 07:28:31;;;;;;;16.60;7.70;;;8.30;99.90;;;;;;5036950;28;20048;-81
2022/01/04 07:30:57;;;;;;;17.55;7.88;;;8.30;99.90;;;;;;5033956;28;20044;-80
2022/01/04 07:33:23;;;;;;;20.10;8.50;;;8.30;99.90;;;;;;5021360;28;20044;-80
2022/01/04 07:35:52;;;;;;;27.70;8.23;;;8.30;99.90;;;;;;5037473;28;20729;-80
2022/01/04 07:38:17;;;;;;;37.97;9.25;;;8.30;99.90;;;;;;5051291;28;20029;-80
2022/01/04 07:40:43;;;;;;;22.67;8.45;;;8.30;99.90;;;;;;5016784;28;20361;-81
2022/01/04 07:43:10;;;;;;;20.17;8.35;;;8.30;99.90;;;;;;5036292;28;20095;-81
2022/01/04 07:45:36;;;;;;;20.90;8.75;;;8.30;99.90;;;;;;5036247;28;20610;-80
2022/01/04 07:48:01;;;;;;;24.65;9.23;;;8.30;99.90;;;;;;5038391;28;20037;-80
2022/01/04 07:50:27;;;;;;;26.88;9.68;;;8.30;99.90;;;;;;5024442;28;20562;-81
2022/01/04 07:52:53;;;;;;;28.10;10.07;;;8.30;99.90;;;;;;5037542;28;20124;-80
2022/01/04 07:55:20;;;;;;;22.27;9.27;;;8.30;99.90;;;;;;5040173;28;20379;-81
2022/01/04 07:57:45;;;;;;;26.33;9.60;;;8.40;99.90;;;;;;5041204;28;20164;-81
2022/01/04 08:00:13;;;;;;;25.00;10.10;;;8.40;99.90;;;;;;5057726;28;20112;-81
2022/01/04 08:02:40;;;;;;;26.38;10.85;;;8.40;99.90;;;;;;5017949;28;20041;-81
2022/01/04 08:05:07;;;;;;;27.05;10.98;;;8.40;99.90;;;;;;5025899;28;20399;-80
2022/01/04 08:07:35;;;;;;;28.45;11.38;;;8.40;99.90;;;;;;5041033;28;20041;-80
2022/01/04 08:10:02;;;;;;;25.63;11.13;;;8.40;99.90;;;;;;5015353;28;22595;-80
2022/01/04 08:12:28;;;;;;;19.30;7.43;;;8.40;99.90;;;;;;5022699;28;20120;-80
2022/01/04 08:14:54;;;;;;;17.88;8.88;;;8.30;99.90;;;;;;5024683;28;20124;-80
2022/01/04 08:17:20;;;;;;;14.63;5.00;;;8.30;99.90;;;;;;5039873;28;20029;-80
2022/01/04 08:19:46;;;;;;;9.60;4.03;;;8.10;99.90;;;;;;5022859;28;20044;-80
2022/01/04 08:22:11;;;;;;;5.53;2.58;;;8.00;99.90;;;;;;5040789;28;20440;-80
2022/01/04 08:24:37;;;;;;;5.45;1.88;;;7.90;99.90;;;;;;5022169;28;20345;-80
2022/01/04 08:27:03;;;;;;;9.90;1.90;;;7.80;99.90;;;;;;5041775;28;20107;-80
2022/01/04 08:29:31;;;;;;;6.78;2.13;;;7.80;99.90;;;;;;5041626;28;20041;-80
2022/01/04 08:31:57;;;;;;;9.43;2.10;;;7.80;99.90;;;;;;5040409;28;20037;-80
2022/01/04 08:34:22;;;;;;;11.57;2.83;;;7.70;99.90;;;;;;5038311;28;20118;-80
2022/01/04 08:36:48;;;;;;;9.55;2.80;;;7.80;99.90;;;;;;5023545;28;20567;-81
2022/01/04 08:39:16;;;;;;;5.65;2.50;;;7.70;99.90;;;;;;5040066;28;20112;-80
2022/01/04 08:41:50;;;;;;;8.52;2.50;;;7.70;99.90;;;;;;5040583;28;20037;-80
2022/01/04 08:44:15;;;;;;;10.20;2.80;;;7.70;99.90;;;;;;5035546;28;20053;-80
2022/01/04 08:46:42;;;;;;;9.15;2.90;;;7.70;99.90;;;;;;5037293;28;20040;-80
2022/01/04 08:49:08;;;;;;;7.22;2.88;;;7.70;99.90;;;;;;5037425;28;20067;-80
2022/01/04 08:51:35;;;;;;;9.18;3.00;;;7.70;99.90;;;;;;5053794;28;20092;-80
2022/01/04 08:54:01;;;;;;;9.05;3.03;;;7.80;99.90;;;;;;5037220;28;20838;-80
2022/01/04 08:56:26;;;;;;;10.30;2.92;;;7.80;99.90;;;;;;5023424;28;20025;-80
2022/01/04 08:58:53;;;;;;;7.90;2.90;;;7.80;99.90;;;;;;5037430;28;20029;-80
2022/01/04 09:01:18;;;;;;;8.88;3.13;;;7.80;99.90;;;;;;5040041;28;20086;-80
2022/01/04 09:03:44;;;;;;;10.13;2.92;;;7.80;99.90;;;;;;5036843;28;20053;-80
2022/01/04 09:06:11;;;;;;;10.23;3.42;;;7.80;99.90;;;;;;5040977;28;20049;-80
2022/01/04 09:08:37;;;;;;;10.82;3.08;;;7.70;99.90;;;;;;5022004;28;20307;-80
2022/01/04 09:11:03;;;;;;;11.50;3.45;;;7.70;99.90;;;;;;5022640;28;20034;-80
2022/01/04 09:13:37;;;;;;;16.77;4.03;;;7.70;99.90;;;;;;5021049;28;20435;-80
2022/01/04 09:18:50;;;;;;;10.45;3.60;;;7.70;99.90;;;;;;5038648;28;20041;-80
2022/01/04 09:21:23;;;;;;;6.35;2.08;;;7.80;99.90;;;;;;5037369;28;20124;-80
2022/01/04 09:23:50;;;;;;;7.82;2.28;;;7.60;99.90;;;;;;5022055;28;20055;-80
2022/01/04 09:26:18;;;;;;;2.45;1.25;;;7.50;99.90;;;;;;5023274;28;20041;-80
2022/01/04 09:28:45;;;;;;;4.90;1.35;;;7.50;99.90;;;;;;5037882;28;20044;-80
2022/01/04 09:31:11;;;;;;;3.63;1.10;;;7.40;99.90;;;;;;5024097;28;20102;-80
2022/01/04 09:33:38;;;;;;;6.50;1.50;;;7.40;99.90;;;;;;5039124;28;20274;-80
2022/01/04 09:36:05;;;;;;;3.92;1.35;;;7.40;99.90;;;;;;5023565;28;20408;-80
2022/01/04 09:38:31;;;;;;;4.38;1.25;;;7.40;99.90;;;;;;5037714;28;20500;-81
2022/01/04 09:40:57;;;;;;;5.75;1.15;;;7.40;99.90;;;;;;5039476;28;20538;-80
2022/01/04 09:43:25;;;;;;;6.43;1.65;;;7.50;99.90;;;;;;5019930;28;20065;-80
2022/01/04 09:45:52;;;;;;;6.03;1.40;;;7.40;99.90;;;;;;5057004;28;20060;-80
2022/01/04 09:48:19;;;;;;;5.43;1.55;;;7.40;99.90;;;;;;5022747;28;20424;-80
2022/01/04 09:50:46;;;;;;;7.22;1.30;;;7.30;99.90;;;;;;5021357;28;20036;-80
2022/01/04 09:53:19;;;;;;;6.22;1.55;;;7.30;99.90;;;;;;5036428;28;20044;-80
2022/01/04 09:55:51;;;;;;;6.35;0.95;;;7.20;99.90;;;;;;5056419;28;20091;-80
2022/01/04 09:58:21;;;;;;;5.38;1.35;;;7.20;99.90;;;;;;5037273;28;20424;-80
2022/01/04 10:00:48;;;;;;;7.30;1.35;;;7.10;99.90;;;;;;5039597;28;22097;-80
2022/01/04 10:03:21;;;;;;;5.20;1.15;;;7.10;99.90;;;;;;5034938;28;20179;-80
2022/01/04 10:06:08;;;;;;;3.85;1.05;;;7.20;99.90;;;;;;5037670;28;20132;-80
2022/01/04 10:08:50;;;;;;;4.03;1.38;;;7.10;99.90;;;;;;5037466;28;20277;-80
2022/01/04 10:11:27;;;;;;;4.18;1.00;;;7.10;99.90;;;;;;5037542;28;20052;-79
2022/01/04 10:13:53;;;;;;;6.13;1.35;;;7.00;99.90;;;;;;5054528;28;20059;-80
2022/01/04 10:16:18;;;;;;;5.43;1.17;;;7.00;99.90;;;;;;5039143;28;20033;-80
2022/01/04 10:18:48;;;;;;;8.02;1.50;;;7.00;99.90;;;;;;5038459;28;20396;-80
2022/01/04 10:21:15;;;;;;;10.50;1.60;;;6.90;99.90;;;;;;5022601;28;20047;-79
2022/01/04 10:23:55;;;;;;;6.47;1.75;;;6.80;99.90;;;;;;5009907;28;20037;-80
2022/01/04 10:26:49;;;;;;;6.00;1.27;;;6.70;99.90;;;;;;5038871;28;20029;-80
2022/01/04 10:29:20;;;;;;;6.82;1.50;;;6.60;99.90;;;;;;5019624;28;20431;-80
2022/01/04 10:31:46;;;;;;;5.30;1.60;;;6.60;99.90;;;;;;5015510;28;20059;-80
2022/01/04 10:34:11;;;;;;;6.45;1.50;;;6.60;99.90;;;;;;5022240;28;20476;-80
2022/01/04 10:36:38;;;;;;;2.80;1.55;;;6.60;99.90;;;;;;5020328;28;20496;-80
2022/01/04 10:39:09;;;;;;;2.72;1.08;;;6.50;99.90;;;;;;5055703;28;20025;-80
2022/01/04 10:41:35;;;;;;;3.53;0.90;;;6.30;99.90;;;;;;5050095;28;20079;-80
2022/01/04 10:44:07;;;;;;;5.18;1.40;;;6.30;99.90;;;;;;5035788;28;20496;-80
2022/01/04 10:46:43;;;;;;;4.05;1.13;;;6.10;99.90;;;;;;5058140;28;20072;-80
2022/01/04 10:49:18;;;;;;;2.70;1.38;;;6.10;99.90;;;;;;5034228;28;20048;-80
2022/01/04 10:51:44;;;;;;;3.95;1.30;;;6.10;99.90;;;;;;5019256;28;20059;-80
2022/01/04 10:54:18;;;;;;;3.58;1.20;;;6.10;99.90;;;;;;5038282;28;20037;-80
2022/01/04 10:56:44;;;;;;;3.85;1.38;;;6.00;99.90;;;;;;5037354;28;20044;-80
2022/01/04 10:59:11;;;;;;;4.22;1.00;;;6.00;99.90;;;;;;5036912;28;20427;-80
2022/01/04 11:01:44;;;;;;;6.13;1.20;;;5.90;99.90;;;;;;5017240;28;20044;-79
2022/01/04 11:04:18;;;;;;;4.20;0.90;;;6.00;99.90;;;;;;5032614;28;20139;-80
2022/01/04 11:06:46;;;;;;;5.20;1.03;;;5.90;99.90;;;;;;5037719;28;20045;-80
2022/01/04 11:09:12;;;;;;;3.30;1.05;;;6.00;99.90;;;;;;5035512;28;20315;-80
2022/01/04 11:11:39;;;;;;;3.65;1.05;;;6.00;99.90;;;;;;5053653;28;20121;-80
2022/01/04 11:14:07;;;;;;;2.90;1.05;;;6.00;99.90;;;;;;5019109;28;20028;-80
2022/01/04 11:16:32;;;;;;;6.40;1.50;;;6.10;99.90;;;;;;5036471;28;20032;-80
2022/01/04 11:19:01;;;;;;;4.43;1.08;;;6.10;99.90;;;;;;5035274;28;20095;-80
2022/01/04 11:21:45;;;;;;;3.17;1.00;;;6.10;99.90;;;;;;5019166;28;20041;-80
2022/01/04 11:24:12;;;;;;;4.85;0.70;;;6.10;99.90;;;;;;5025945;28;20110;-80
2022/01/04 11:26:43;;;;;;;3.47;1.52;;;5.90;99.90;;;;;;5026302;28;20416;-80
2022/01/04 11:29:09;;;;;;;1.52;0.70;;;5.80;99.90;;;;;;5039901;28;20460;-80
2022/01/04 11:31:48;;;;;;;1.33;0.57;;;5.80;99.90;;;;;;5041790;28;20187;-80
2022/01/04 11:34:52;;;;;;;2.10;0.80;;;5.80;99.90;;;;;;5056426;28;20064;-80
2022/01/04 11:37:19;;;;;;;4.03;0.60;;;5.80;99.90;;;;;;5020468;28;20045;-80
2022/01/04 11:39:44;;;;;;;3.15;0.75;;;5.80;99.90;;;;;;5056187;28;20029;-80
2022/01/04 11:42:35;;;;;;;5.10;1.40;;;5.80;99.90;;;;;;5041382;28;20029;-80
2022/01/04 11:45:02;;;;;;;6.10;1.10;;;5.80;99.90;;;;;;5025366;28;20399;-80
2022/01/04 11:47:29;;;;;;;3.08;0.82;;;5.40;99.90;;;;;;5041283;28;20049;-80
2022/01/04 11:50:15;;;;;;;2.97;1.00;;;5.30;99.90;;;;;;5041438;28;20040;-80
2022/01/04 11:52:50;;;;;;;3.65;0.93;;;5.40;99.90;;;;;;5041338;28;20336;-80
2022/01/04 11:55:29;;;;;;;4.95;0.95;;;5.40;99.90;;;;;;5037513;28;20033;-80
2022/01/04 11:57:58;;;;;;;5.28;0.90;;;5.50;99.90;;;;;;5039438;28;20516;-80
2022/01/04 12:00:39;;;;;;;4.18;0.80;;;5.60;99.90;;;;;;5024513;28;20045;-80
2022/01/04 12:03:13;;;;;;;4.18;0.98;;;5.50;99.90;;;;;;5006163;28;20037;-80
2022/01/04 12:05:58;;;;;;;5.63;2.40;;;5.60;99.90;;;;;;5024446;28;20083;-80
2022/01/04 12:08:45;;;;;;;4.55;0.88;;;5.70;99.90;;;;;;5026503;28;20045;-80
2022/01/04 12:11:24;;;;;;;7.40;1.10;;;5.70;99.90;;;;;;5003429;28;20096;-80
2022/01/04 12:13:51;;;;;;;7.53;0.90;;;5.80;99.90;;;;;;5005697;28;20037;-80
2022/01/04 12:16:37;;;;;;;2.63;0.52;;;5.90;99.90;;;;;;5037426;28;20032;-80
2022/01/04 12:19:11;;;;;;;4.07;0.70;;;5.90;99.90;;;;;;5006098;28;20132;-80
2022/01/04 12:21:40;;;;;;;10.30;1.40;;;5.90;99.90;;;;;;5024065;28;20053;-79
2022/01/04 12:24:07;;;;;;;6.22;1.05;;;6.00;99.90;;;;;;5020062;28;20295;-80
2022/01/04 12:26:35;;;;;;;4.82;1.10;;;6.00;99.90;;;;;;5000437;28;20047;-80
2022/01/04 12:29:09;;;;;;;4.40;0.80;;;5.90;99.90;;;;;;5024532;28;20098;-80
2022/01/04 12:31:36;;;;;;;4.03;0.88;;;6.10;99.90;;;;;;5010942;28;20130;-80
2022/01/04 12:34:04;;;;;;;5.43;0.70;;;6.10;99.90;;;;;;5005962;28;20039;-79
2022/01/04 12:36:35;;;;;;;5.05;1.02;;;6.10;99.90;;;;;;5039975;28;20049;-79
2022/01/04 12:39:04;;;;;;;4.57;0.75;;;6.10;99.90;;;;;;5006307;28;20501;-80
2022/01/04 12:41:30;;;;;;;6.60;0.93;;;6.10;99.90;;;;;;5035539;28;20103;-80
2022/01/04 12:43:57;;;;;;;4.85;1.30;;;6.20;99.90;;;;;;4998197;28;20051;-80
2022/01/04 12:46:40;;;;;;;5.03;1.67;;;6.20;99.90;;;;;;5021804;28;20041;-80
2022/01/04 12:49:11;;;;;;;12.05;2.08;;;6.10;99.90;;;;;;5003290;28;21486;-80
2022/01/04 12:51:47;;;;;;;4.32;1.00;;;6.10;99.90;;;;;;5005952;28;20471;-80
2022/01/04 12:54:22;;;;;;;4.43;1.45;;;6.10;99.90;;;;;;5024351;28;20134;-80
2022/01/04 12:56:55;;;;;;;6.07;1.58;;;6.00;99.90;;;;;;5023026;28;20041;-80